createdAt,value
2024-04-03T00:00:04.315Z,1.1
2024-04-03T00:05:03.919Z,1.0
2024-04-03T00:10:03.446Z,0.9
2024-04-03T00:15:03.054Z,0.8
2024-04-03T00:20:02.618Z,0.5
2024-04-03T00:25:02.537Z,0.6
2024-04-03T00:30:01.787Z,0.9
2024-04-03T00:35:01.384Z,1.1
2024-04-03T00:40:01.029Z,0.6
2024-04-03T00:45:00.601Z,0.7
2024-04-03T00:50:00.214Z,0.9
2024-04-03T00:54:59.651Z,0.8
2024-04-03T00:59:59.183Z,0.7
2024-04-03T01:04:58.787Z,0.6
2024-04-03T01:14:57.968Z,0.5
2024-04-03T01:24:57.085Z,0.7
2024-04-03T01:29:56.666Z,0.8
2024-04-03T01:34:56.237Z,0.5
2024-04-03T01:39:55.803Z,0.6
2024-04-03T01:44:55.469Z,0.5
2024-04-03T01:54:54.595Z,0.6
2024-04-03T01:59:54.193Z,0.5
2024-04-03T02:04:53.835Z,0.6
2024-04-03T02:09:53.438Z,0.4
2024-04-03T02:14:53.048Z,0.5
2024-04-03T02:24:52.278Z,0.6
2024-04-03T02:34:51.483Z,0.7
2024-04-03T02:39:51.071Z,0.6
2024-04-03T03:04:49.173Z,0.5
2024-04-03T03:09:48.748Z,1.0
2024-04-03T03:14:48.364Z,0.8
2024-04-03T03:19:47.916Z,0.6
2024-04-03T03:24:47.532Z,1.1
2024-04-03T03:29:47.092Z,1.2
2024-04-03T03:34:46.742Z,1.0
2024-04-03T03:39:46.372Z,0.7
2024-04-03T03:44:46.004Z,0.6
2024-04-03T03:49:45.560Z,0.8
2024-04-03T03:54:45.136Z,0.7
2024-04-03T04:04:44.401Z,0.6
2024-04-03T04:09:44.000Z,0.5
2024-04-03T04:19:43.236Z,1.0
2024-04-03T04:29:42.459Z,1.2
2024-04-03T04:34:42.044Z,1.6
2024-04-03T04:39:41.643Z,1.2
2024-04-03T04:44:41.223Z,1.8
2024-04-03T04:49:40.803Z,1.7
2024-04-03T04:54:42.284Z,1.6
2024-04-03T04:59:39.931Z,1.9
2024-04-03T05:04:39.592Z,1.6
2024-04-03T05:09:39.130Z,1.1
2024-04-03T05:24:37.760Z,1.2
2024-04-03T05:29:37.350Z,1.0
2024-04-03T05:34:36.900Z,0.9
2024-04-03T05:39:36.525Z,1.1
2024-04-03T05:44:36.054Z,1.4
2024-04-03T05:49:35.605Z,1.2
2024-04-03T05:54:35.147Z,1.4
2024-04-03T05:59:34.664Z,0.7
2024-04-03T06:04:34.199Z,0.8
2024-04-03T06:09:33.729Z,0.7
2024-04-03T06:14:33.337Z,0.5
2024-04-03T06:19:32.809Z,0.8
2024-04-03T06:24:32.412Z,0.6
2024-04-03T06:29:31.968Z,0.7
2024-04-03T06:39:31.132Z,0.5
2024-04-03T06:44:30.703Z,0.6
2024-04-03T06:54:29.843Z,0.9
2024-04-03T07:04:29.011Z,0.8
2024-04-03T07:09:28.555Z,0.7
2024-04-03T07:14:28.135Z,0.9
2024-04-03T07:19:27.713Z,0.8
2024-04-03T07:24:27.323Z,0.7
2024-04-03T07:29:26.906Z,1.0
2024-04-03T07:34:26.423Z,0.5
2024-04-03T07:39:25.993Z,1.0
2024-04-03T07:44:25.558Z,0.6
2024-04-03T07:59:24.281Z,0.8
2024-04-03T08:04:23.871Z,0.7
2024-04-03T08:09:23.495Z,0.5
2024-04-03T08:14:23.049Z,0.9
2024-04-03T08:19:22.702Z,0.5
2024-04-03T08:24:22.324Z,0.7
2024-04-03T08:29:21.883Z,0.8
2024-04-03T08:34:21.542Z,0.7
2024-04-03T08:39:21.126Z,0.4
2024-04-03T08:44:20.676Z,0.5
2024-04-03T08:54:19.959Z,0.6
2024-04-03T08:59:19.539Z,0.4
2024-04-03T09:04:19.186Z,0.7
2024-04-03T09:09:18.782Z,0.6
2024-04-03T09:14:18.364Z,0.4
2024-04-03T09:19:17.916Z,0.3
2024-04-03T09:24:17.556Z,0.4
2024-04-03T09:29:17.154Z,0.5
2024-04-03T09:34:16.740Z,0.8
2024-04-03T09:44:15.944Z,0.7
2024-04-03T09:54:15.110Z,0.9
2024-04-03T09:59:14.700Z,1.3
2024-04-03T10:04:14.276Z,0.9
2024-04-03T10:09:13.937Z,0.7
2024-04-03T10:24:12.650Z,0.5
2024-04-03T10:34:11.828Z,0.6
2024-04-03T10:39:11.415Z,0.7
2024-04-03T10:44:11.039Z,0.8
2024-04-03T10:49:10.617Z,1.0
2024-04-03T10:54:10.192Z,0.8
2024-04-03T10:59:09.851Z,0.9
2024-04-03T11:04:09.438Z,0.7
2024-04-03T11:14:08.680Z,0.8
2024-04-03T11:19:08.278Z,0.6
2024-04-03T11:24:07.927Z,0.8
2024-04-03T11:29:07.540Z,0.7
2024-04-03T11:39:06.730Z,0.8
2024-04-03T11:44:06.339Z,0.7
2024-04-03T11:49:05.969Z,0.9
2024-04-03T11:54:05.540Z,1.0
2024-04-03T11:59:05.118Z,0.7
2024-04-03T12:04:04.743Z,0.6
2024-04-03T12:09:04.303Z,0.8
2024-04-03T12:19:03.469Z,0.9
2024-04-03T12:24:03.059Z,1.2
2024-04-03T12:29:02.670Z,0.9
2024-04-03T12:34:02.286Z,0.7
2024-04-03T12:44:01.589Z,0.9
2024-04-03T12:49:01.313Z,1.1
2024-04-03T12:59:00.544Z,1.0
2024-04-03T13:13:59.394Z,1.3
2024-04-03T13:18:59.045Z,1.1
2024-04-03T13:33:58.142Z,1.2
2024-04-03T13:38:57.767Z,1.0
2024-04-03T13:43:57.499Z,0.8
2024-04-03T13:48:57.190Z,0.9
2024-04-03T13:53:59.810Z,1.0
2024-04-03T14:03:56.184Z,1.1
2024-04-03T14:08:55.885Z,0.8
2024-04-03T14:13:55.582Z,1.1
2024-04-03T14:18:55.301Z,0.9
2024-04-03T14:23:55.064Z,1.1
2024-04-03T14:33:54.419Z,0.9
2024-04-03T14:38:54.097Z,0.7
2024-04-03T14:43:53.816Z,0.6
2024-04-03T14:48:53.574Z,0.7
2024-04-03T14:53:53.350Z,0.8
2024-04-03T14:58:53.179Z,0.6
2024-04-03T15:03:52.969Z,0.7
2024-04-03T15:08:52.751Z,0.6
2024-04-03T15:13:52.563Z,0.7
2024-04-03T15:18:52.309Z,0.9
2024-04-03T15:28:51.821Z,0.7
2024-04-03T15:33:51.558Z,0.6
2024-04-03T15:43:51.045Z,1.0
2024-04-03T15:48:50.732Z,0.9
2024-04-03T15:58:50.189Z,0.7
2024-04-03T16:03:49.990Z,0.6
2024-04-03T16:18:49.098Z,0.5
2024-04-03T16:28:48.597Z,0.7
2024-04-03T16:38:48.052Z,0.6
2024-04-03T16:43:47.771Z,0.5
2024-04-03T16:48:47.529Z,0.6
2024-04-03T16:53:47.253Z,0.5
2024-04-03T16:58:46.990Z,0.7
2024-04-03T17:03:52.937Z,0.6
2024-04-03T17:08:46.439Z,0.8
2024-04-03T17:13:46.156Z,0.6
2024-04-03T17:18:45.860Z,0.7
2024-04-03T17:23:45.571Z,0.6
2024-04-03T17:28:45.304Z,1.2
2024-04-03T17:33:45.016Z,0.8
2024-04-03T17:48:44.064Z,1.0
2024-04-03T17:53:43.784Z,0.8
2024-04-03T17:58:43.408Z,1.1
2024-04-03T18:03:43.111Z,0.7
2024-04-03T18:08:42.754Z,0.9
2024-04-03T18:13:42.385Z,0.7
2024-04-03T18:18:42.092Z,0.9
2024-04-03T18:38:40.609Z,0.8
2024-04-03T18:43:40.247Z,1.1
2024-04-03T18:53:39.507Z,0.9
2024-04-03T18:58:39.121Z,1.2
2024-04-03T19:03:38.808Z,1.4
2024-04-03T19:08:38.401Z,0.8
2024-04-03T19:13:37.986Z,1.2
2024-04-03T19:18:37.580Z,0.7
2024-04-03T19:23:37.211Z,1.3
2024-04-03T19:28:36.855Z,1.1
2024-04-03T19:38:36.381Z,2.1
2024-04-03T19:43:35.778Z,1.4
2024-04-03T19:48:35.488Z,1.3
2024-04-03T19:53:35.076Z,1.1
2024-04-03T19:58:34.742Z,1.3
2024-04-03T20:03:34.366Z,1.4
2024-04-03T20:08:34.035Z,1.2
2024-04-03T20:13:33.638Z,1.4
2024-04-03T20:23:32.849Z,1.3
2024-04-03T20:28:32.508Z,1.2
2024-04-03T20:33:32.740Z,1.5
2024-04-03T20:38:31.619Z,1.3
2024-04-03T20:43:31.276Z,1.4
2024-04-03T20:48:30.864Z,1.2
2024-04-03T20:53:30.500Z,1.3
2024-04-03T21:03:29.772Z,1.4
2024-04-03T21:08:29.427Z,1.1
2024-04-03T21:13:29.071Z,1.5
2024-04-03T21:18:28.653Z,1.7
2024-04-03T21:23:28.307Z,1.2
2024-04-03T21:28:27.960Z,1.7
2024-04-03T21:33:27.566Z,1.2
2024-04-03T21:38:27.204Z,1.7
2024-04-03T21:43:26.803Z,1.0
2024-04-03T21:48:26.424Z,1.4
2024-04-03T21:53:26.056Z,1.2
2024-04-03T22:03:25.225Z,1.1
2024-04-03T22:08:24.802Z,0.8
2024-04-03T22:13:24.364Z,1.0
2024-04-03T22:18:23.965Z,1.1
2024-04-03T22:23:23.532Z,1.2
2024-04-03T22:28:23.089Z,0.7
2024-04-03T22:38:22.251Z,1.1
2024-04-03T22:43:21.766Z,0.7
2024-04-03T22:48:21.344Z,1.4
2024-04-03T22:53:20.885Z,0.8
2024-04-03T22:58:20.437Z,0.3
2024-04-03T23:03:20.064Z,0.2
2024-04-03T23:08:19.568Z,1.0
2024-04-03T23:23:18.089Z,0.9
2024-04-03T23:28:17.560Z,1.3
2024-04-03T23:33:17.108Z,0.9
2024-04-03T23:38:16.614Z,0.6
2024-04-03T23:43:16.097Z,0.5
2024-04-03T23:48:15.602Z,0.4
2024-04-03T23:58:14.683Z,0.6
